createdAt,value
2023-03-15T00:00:03.026Z,71.45
2023-03-15T00:01:03.038Z,71.28
2023-03-15T00:02:03.101Z,72.01
2023-03-15T00:03:03.090Z,71.70
2023-03-15T00:04:03.110Z,71.39
2023-03-15T00:05:03.144Z,71.83
2023-03-15T00:06:03.167Z,72.22
2023-03-15T00:07:03.176Z,71.91
2023-03-15T00:08:04.539Z,71.04
2023-03-15T00:09:03.187Z,70.94
2023-03-15T00:10:03.187Z,71.14
2023-03-15T00:11:03.206Z,71.04
2023-03-15T00:12:03.197Z,71.14
2023-03-15T00:13:03.211Z,70.97
2023-03-15T00:16:55.256Z,71.35
2023-03-15T00:17:55.258Z,70.94
2023-03-15T00:18:55.305Z,71.25
2023-03-15T00:19:55.296Z,70.62
2023-03-15T00:20:55.289Z,70.59
2023-03-15T00:21:55.296Z,70.07
2023-03-15T00:22:55.286Z,70.59
2023-03-15T00:23:55.278Z,70.18
2023-03-15T00:24:55.290Z,70.04
2023-03-15T00:25:55.281Z,69.73
2023-03-15T00:28:21.268Z,69.66
2023-03-15T00:29:21.245Z,70.59
2023-03-15T00:30:21.327Z,70.18
2023-03-15T00:32:47.357Z,70.18
2023-03-15T00:33:47.388Z,70.10
2023-03-15T00:34:47.428Z,70.70
2023-03-15T00:35:47.441Z,70.46
2023-03-15T00:36:47.423Z,69.87
2023-03-15T00:37:47.409Z,70.04
2023-03-15T00:38:47.509Z,70.04
2023-03-15T00:39:47.481Z,69.84
2023-03-15T00:40:48.342Z,69.73
2023-03-15T00:41:47.490Z,69.97
2023-03-15T00:42:47.552Z,70.28
2023-03-15T00:43:47.557Z,69.73
2023-03-15T00:44:47.551Z,69.39
2023-03-15T00:45:47.572Z,68.77
2023-03-15T00:48:13.630Z,68.25
2023-03-15T00:49:13.714Z,68.46
2023-03-15T00:50:13.712Z,68.80
2023-03-15T00:51:13.722Z,68.66
2023-03-15T00:52:13.731Z,68.35
2023-03-15T00:53:13.735Z,68.32
2023-03-15T00:54:13.849Z,67.49
2023-03-15T00:55:13.748Z,67.70
2023-03-15T00:56:13.815Z,67.70
2023-03-15T00:57:13.815Z,67.80
2023-03-15T00:58:13.813Z,67.36
2023-03-15T00:59:13.843Z,67.60
2023-03-15T01:00:13.842Z,67.67
2023-03-15T01:01:13.854Z,67.05
2023-03-15T01:02:13.864Z,67.80
2023-03-15T01:03:13.896Z,67.80
2023-03-15T01:04:13.900Z,67.70
2023-03-15T01:05:13.895Z,67.80
2023-03-15T01:06:13.903Z,67.39
2023-03-15T01:07:13.905Z,68.46
2023-03-15T01:08:13.905Z,68.43
2023-03-15T01:09:13.915Z,68.01
2023-03-15T01:10:13.911Z,68.15
2023-03-15T01:11:13.906Z,68.35
2023-03-15T01:12:13.893Z,68.32
2023-03-15T01:13:13.884Z,68.66
2023-03-15T01:14:13.884Z,68.66
2023-03-15T01:15:13.913Z,68.53
2023-03-15T01:16:14.023Z,68.22
2023-03-15T01:17:13.946Z,67.70
2023-03-15T01:18:14.019Z,67.94
2023-03-15T01:19:14.050Z,68.66
2023-03-15T01:20:14.098Z,68.46
2023-03-15T01:21:14.087Z,68.77
2023-03-15T01:22:14.106Z,68.66
2023-03-15T01:23:14.119Z,68.46
2023-03-15T01:24:14.225Z,68.56
2023-03-15T01:25:14.215Z,68.98
2023-03-15T01:26:14.216Z,68.87
2023-03-15T01:27:14.236Z,69.21
2023-03-15T01:28:14.278Z,69.84
2023-03-15T01:29:14.312Z,69.90
2023-03-15T01:30:14.385Z,69.29
2023-03-15T01:31:14.446Z,69.94
2023-03-15T01:32:14.470Z,69.80
2023-03-15T01:33:14.528Z,69.94
2023-03-15T01:34:14.529Z,70.46
2023-03-15T01:35:14.557Z,69.90
2023-03-15T01:36:14.584Z,69.80
2023-03-15T01:37:14.749Z,69.67
2023-03-15T01:38:14.622Z,69.25
2023-03-15T01:39:14.628Z,69.25
2023-03-15T01:40:14.689Z,69.12
2023-03-15T01:41:14.738Z,68.63
2023-03-15T01:42:14.796Z,70.63
2023-03-15T01:43:14.790Z,70.32
2023-03-15T01:44:14.848Z,70.97
2023-03-15T01:45:14.891Z,71.70
2023-03-15T01:46:14.983Z,72.22
2023-03-15T01:47:14.950Z,71.88
2023-03-15T01:48:14.921Z,72.22
2023-03-15T01:49:14.940Z,73.70
2023-03-15T01:50:14.946Z,74.60
2023-03-15T01:51:14.980Z,75.05
2023-03-15T01:52:15.041Z,75.98
2023-03-15T01:53:15.103Z,76.85
2023-03-15T01:54:15.170Z,78.30
2023-03-15T01:55:15.237Z,78.16
2023-03-15T01:56:15.270Z,78.37
2023-03-15T01:57:15.250Z,78.47
2023-03-15T01:58:15.283Z,79.03
2023-03-15T01:59:15.312Z,79.85
2023-03-15T02:00:15.326Z,79.61
2023-03-15T02:01:15.408Z,79.10
2023-03-15T02:02:15.438Z,79.71
2023-03-15T02:03:15.453Z,79.58
2023-03-15T02:04:15.522Z,79.51
2023-03-15T02:05:15.595Z,80.23
2023-03-15T02:06:15.578Z,80.37
2023-03-15T02:07:15.651Z,81.06
2023-03-15T02:08:15.684Z,80.19
2023-03-15T02:09:15.671Z,79.68
2023-03-15T02:10:15.721Z,79.88
2023-03-15T02:11:15.720Z,79.58
2023-03-15T02:12:15.764Z,80.19
2023-03-15T02:13:15.797Z,79.99
2023-03-15T02:14:15.832Z,80.33
2023-03-15T02:15:15.889Z,81.30
2023-03-15T02:16:15.915Z,81.89
2023-03-15T02:17:15.985Z,81.16
2023-03-15T02:18:15.957Z,80.85
2023-03-15T02:19:15.946Z,81.27
2023-03-15T02:20:15.966Z,81.06
2023-03-15T02:21:16.010Z,81.51
2023-03-15T02:22:15.957Z,82.41
2023-03-15T02:23:16.000Z,81.65
2023-03-15T02:24:16.036Z,81.13
2023-03-15T02:25:16.032Z,81.02
2023-03-15T02:26:16.019Z,81.13
2023-03-15T02:27:16.041Z,81.02
2023-03-15T02:28:16.085Z,81.58
2023-03-15T02:29:16.118Z,82.31
2023-03-15T02:30:16.123Z,82.31
2023-03-15T02:31:16.241Z,82.62
2023-03-15T02:32:16.272Z,82.41
2023-03-15T02:33:16.266Z,82.48
2023-03-15T02:34:16.249Z,81.99
2023-03-15T02:35:16.247Z,82.17
2023-03-15T02:36:16.249Z,81.96
2023-03-15T02:37:16.248Z,81.65
2023-03-15T02:38:16.275Z,81.68
2023-03-15T02:39:16.329Z,82.48
2023-03-15T02:40:16.329Z,81.85
2023-03-15T02:41:16.391Z,82.37
2023-03-15T02:42:16.381Z,82.06
2023-03-15T02:43:16.431Z,82.41
2023-03-15T02:44:16.500Z,83.28
2023-03-15T02:45:16.552Z,83.69
2023-03-15T02:46:16.659Z,84.00
2023-03-15T02:47:16.651Z,83.90
2023-03-15T02:48:16.697Z,84.11
2023-03-15T02:49:16.677Z,84.63
2023-03-15T02:50:16.714Z,84.36
2023-03-15T02:51:16.717Z,84.73
2023-03-15T02:52:16.755Z,84.42
2023-03-15T02:53:16.839Z,84.83
2023-03-15T02:54:16.896Z,84.59
2023-03-15T02:55:16.919Z,83.65
2023-03-15T02:56:16.986Z,84.05
2023-03-15T02:57:16.966Z,85.14
2023-03-15T02:58:16.975Z,84.52
2023-03-15T02:59:16.979Z,84.69
2023-03-15T03:00:17.016Z,84.31
2023-03-15T03:01:17.188Z,84.83
2023-03-15T03:02:17.093Z,84.80
2023-03-15T03:03:17.138Z,84.17
2023-03-15T03:04:17.152Z,84.83
2023-03-15T03:05:17.148Z,85.14
2023-03-15T03:06:17.140Z,85.71
2023-03-15T03:07:17.196Z,85.39
2023-03-15T03:08:17.199Z,85.71
2023-03-15T03:09:17.219Z,85.87
2023-03-15T03:10:17.280Z,84.94
2023-03-15T03:11:17.330Z,85.35
2023-03-15T03:12:17.390Z,85.71
2023-03-15T03:13:17.502Z,85.56
2023-03-15T03:14:17.450Z,85.85
2023-03-15T03:15:17.482Z,86.64
2023-03-15T03:16:17.501Z,86.39
2023-03-15T03:17:17.521Z,85.04
2023-03-15T03:18:17.533Z,86.33
2023-03-15T03:19:17.540Z,86.54
2023-03-15T03:20:17.519Z,86.74
2023-03-15T03:21:17.580Z,87.19
2023-03-15T03:22:17.569Z,87.51
2023-03-15T03:23:17.649Z,87.47
2023-03-15T03:24:17.648Z,86.78
2023-03-15T03:25:17.628Z,87.40
2023-03-15T03:26:17.667Z,87.78
2023-03-15T03:27:17.838Z,86.85
2023-03-15T03:28:17.768Z,86.74
2023-03-15T03:29:17.780Z,87.26
2023-03-15T03:30:17.770Z,86.64
2023-03-15T03:31:17.849Z,86.88
2023-03-15T03:32:17.853Z,87.26
2023-03-15T03:33:17.867Z,86.70
2023-03-15T03:34:17.899Z,85.81
2023-03-15T03:35:17.948Z,86.43
2023-03-15T03:36:17.938Z,86.12
2023-03-15T03:37:17.968Z,86.43
2023-03-15T03:38:17.976Z,86.43
2023-03-15T03:39:18.037Z,86.43
2023-03-15T03:40:18.123Z,86.64
2023-03-15T03:41:18.097Z,86.18
2023-03-15T03:42:18.140Z,86.22
2023-03-15T03:43:18.210Z,86.78
2023-03-15T03:44:18.258Z,86.85
2023-03-15T03:45:18.319Z,86.43
2023-03-15T03:46:18.394Z,86.64
2023-03-15T03:47:18.307Z,86.54
2023-03-15T03:48:18.321Z,86.64
2023-03-15T03:49:18.348Z,86.64
2023-03-15T03:50:18.429Z,86.99
2023-03-15T03:51:18.482Z,87.09
2023-03-15T03:52:18.500Z,87.40
2023-03-15T03:53:18.530Z,87.51
2023-03-15T03:54:18.551Z,87.61
2023-03-15T03:55:18.637Z,87.40
2023-03-15T03:56:18.628Z,87.24
2023-03-15T03:57:18.684Z,87.61
2023-03-15T03:58:18.744Z,87.16
2023-03-15T03:59:18.720Z,86.85
2023-03-15T04:00:18.797Z,86.54
2023-03-15T04:01:18.846Z,86.29
2023-03-15T04:02:18.858Z,85.91
2023-03-15T04:03:18.829Z,86.16
2023-03-15T04:04:18.908Z,86.95
2023-03-15T04:05:18.901Z,86.43
2023-03-15T04:06:18.921Z,86.33
2023-03-15T04:07:18.949Z,86.22
2023-03-15T04:08:18.956Z,86.02
2023-03-15T04:09:18.912Z,86.22
2023-03-15T04:10:18.903Z,85.46
2023-03-15T04:11:18.916Z,86.12
2023-03-15T04:12:18.951Z,85.81
2023-03-15T04:13:19.009Z,86.12
2023-03-15T04:14:19.011Z,85.25
2023-03-15T04:15:19.033Z,84.94
2023-03-15T04:16:19.102Z,85.60
2023-03-15T04:17:19.062Z,85.14
2023-03-15T04:18:19.066Z,85.14
2023-03-15T04:19:19.134Z,84.52
2023-03-15T04:20:19.138Z,84.56
2023-03-15T04:21:19.162Z,84.88
2023-03-15T04:22:19.170Z,85.60
2023-03-15T04:23:19.225Z,85.29
2023-03-15T04:24:19.210Z,86.33
2023-03-15T04:25:19.212Z,85.66
2023-03-15T04:26:19.250Z,84.73
2023-03-15T04:27:19.234Z,84.42
2023-03-15T04:28:19.313Z,84.63
2023-03-15T04:29:19.297Z,84.83
2023-03-15T04:30:19.326Z,84.73
2023-03-15T04:31:19.385Z,84.63
2023-03-15T04:32:19.328Z,84.73
2023-03-15T04:33:19.408Z,85.19
2023-03-15T04:34:19.408Z,85.25
2023-03-15T04:35:19.447Z,84.42
2023-03-15T04:36:19.467Z,85.29
2023-03-15T04:37:19.500Z,85.60
2023-03-15T04:38:19.562Z,85.08
2023-03-15T04:39:19.604Z,85.29
2023-03-15T04:40:19.664Z,84.77
2023-03-15T04:41:19.662Z,84.83
2023-03-15T04:42:19.694Z,84.52
2023-03-15T04:43:19.752Z,85.04
2023-03-15T04:44:19.763Z,84.52
2023-03-15T04:45:19.775Z,83.80
2023-03-15T04:46:19.838Z,84.46
2023-03-15T04:47:19.839Z,85.50
2023-03-15T04:48:19.885Z,84.83
2023-03-15T04:49:19.910Z,84.31
2023-03-15T04:50:19.958Z,84.31
2023-03-15T04:51:20.027Z,84.73
2023-03-15T04:52:20.027Z,84.48
2023-03-15T04:53:20.039Z,83.86
2023-03-15T04:54:20.069Z,83.48
2023-03-15T04:55:20.098Z,83.76
2023-03-15T04:56:20.168Z,83.90
2023-03-15T04:57:20.199Z,83.76
2023-03-15T04:58:20.169Z,83.65
2023-03-15T04:59:20.180Z,83.76
2023-03-15T05:00:20.179Z,83.20
2023-03-15T05:01:20.181Z,82.17
2023-03-15T05:02:20.231Z,82.27
2023-03-15T05:03:20.268Z,82.72
2023-03-15T05:04:20.334Z,82.72
2023-03-15T05:05:20.381Z,83.38
2023-03-15T05:06:20.377Z,83.69
2023-03-15T05:07:20.380Z,83.80
2023-03-15T05:08:20.399Z,83.76
2023-03-15T05:09:20.418Z,83.55
2023-03-15T05:10:20.399Z,83.48
2023-03-15T05:11:20.457Z,84.15
2023-03-15T05:12:20.478Z,84.52
2023-03-15T05:13:20.480Z,83.86
2023-03-15T05:14:20.519Z,83.45
2023-03-15T05:15:20.547Z,83.20
2023-03-15T05:16:20.552Z,82.86
2023-03-15T05:17:20.509Z,84.11
2023-03-15T05:18:20.517Z,83.76
2023-03-15T05:19:20.550Z,83.45
2023-03-15T05:20:20.562Z,83.14
2023-03-15T05:21:20.588Z,82.79
2023-03-15T05:22:20.580Z,82.20
2023-03-15T05:23:20.592Z,83.03
2023-03-15T05:24:20.608Z,83.97
2023-03-15T05:25:20.649Z,83.45
2023-03-15T05:26:20.683Z,83.20
2023-03-15T05:27:20.712Z,82.68
2023-03-15T05:28:20.724Z,82.93
2023-03-15T05:29:20.721Z,83.17
2023-03-15T05:30:20.773Z,83.80
2023-03-15T05:31:20.859Z,84.11
2023-03-15T05:32:20.892Z,83.86
2023-03-15T05:33:20.879Z,83.00
2023-03-15T05:34:20.904Z,82.82
2023-03-15T05:35:21.036Z,83.34
2023-03-15T05:36:21.042Z,84.28
2023-03-15T05:37:21.083Z,83.65
2023-03-15T05:38:21.111Z,83.06
2023-03-15T05:39:21.152Z,81.65
2023-03-15T05:40:21.192Z,82.41
2023-03-15T05:41:21.232Z,83.24
2023-03-15T05:42:21.272Z,83.00
2023-03-15T05:43:21.253Z,82.48
2023-03-15T05:44:21.253Z,82.86
2023-03-15T05:45:21.292Z,84.00
2023-03-15T05:46:21.333Z,84.21
2023-03-15T05:47:25.730Z,83.65
2023-03-15T05:48:21.383Z,83.31
2023-03-15T05:49:21.400Z,83.20
2023-03-15T05:50:21.445Z,82.89
2023-03-15T05:51:21.514Z,82.27
2023-03-15T05:52:21.552Z,82.68
2023-03-15T05:53:21.584Z,82.72
2023-03-15T05:54:21.533Z,83.03
2023-03-15T05:55:21.574Z,83.03
2023-03-15T05:56:21.607Z,82.93
2023-03-15T05:57:21.666Z,82.62
2023-03-15T05:58:21.710Z,83.14
2023-03-15T05:59:21.813Z,83.14
2023-03-15T06:00:21.827Z,82.89
2023-03-15T06:01:21.825Z,82.06
2023-03-15T06:02:21.842Z,82.58
2023-03-15T06:03:22.115Z,82.23
2023-03-15T06:04:21.972Z,81.92
2023-03-15T06:05:21.904Z,81.30
2023-03-15T06:06:21.974Z,81.16
2023-03-15T06:07:21.960Z,81.23
2023-03-15T06:08:21.963Z,82.41
2023-03-15T06:09:21.943Z,82.97
2023-03-15T06:10:21.989Z,83.34
2023-03-15T06:11:22.040Z,83.80
2023-03-15T06:12:22.136Z,83.45
2023-03-15T06:13:22.131Z,83.76
2023-03-15T06:14:22.173Z,83.41
2023-03-15T06:15:22.163Z,82.34
2023-03-15T06:16:22.251Z,82.23
2023-03-15T06:17:22.219Z,81.92
2023-03-15T06:18:22.274Z,81.30
2023-03-15T06:19:22.326Z,81.51
2023-03-15T06:20:22.344Z,81.44
2023-03-15T06:21:22.376Z,82.06
2023-03-15T06:22:22.388Z,81.85
2023-03-15T06:23:22.439Z,82.06
2023-03-15T06:24:22.492Z,82.31
2023-03-15T06:25:22.545Z,83.14
2023-03-15T06:26:22.523Z,82.89
2023-03-15T06:27:22.597Z,82.54
2023-03-15T06:28:22.626Z,81.57
2023-03-15T06:29:22.629Z,81.61
2023-03-15T06:30:22.626Z,81.09
2023-03-15T06:31:22.674Z,81.82
2023-03-15T06:32:22.721Z,81.71
2023-03-15T06:33:22.677Z,81.51
2023-03-15T06:34:22.687Z,82.48
2023-03-15T06:35:22.705Z,83.20
2023-03-15T06:36:22.727Z,82.79
2023-03-15T06:37:34.719Z,82.34
2023-03-15T06:38:22.718Z,82.06
2023-03-15T06:39:22.728Z,82.51
2023-03-15T06:40:22.728Z,83.34
2023-03-15T06:41:22.752Z,83.93
2023-03-15T06:42:22.800Z,82.89
2023-03-15T06:43:22.818Z,82.68
2023-03-15T06:44:22.881Z,82.37
2023-03-15T06:45:22.926Z,83.16
2023-03-15T06:46:22.981Z,81.92
2023-03-15T06:47:22.992Z,81.82
2023-03-15T06:48:22.999Z,82.58
2023-03-15T06:49:23.047Z,82.13
2023-03-15T06:50:23.098Z,82.03
2023-03-15T06:51:23.170Z,81.40
2023-03-15T06:52:23.221Z,81.96
2023-03-15T06:53:23.271Z,82.48
2023-03-15T06:54:23.252Z,82.75
2023-03-15T06:55:23.270Z,82.29
2023-03-15T06:56:23.280Z,81.47
2023-03-15T06:57:23.344Z,80.95
2023-03-15T06:58:23.402Z,80.85
2023-03-15T06:59:23.372Z,81.30
2023-03-15T07:00:23.412Z,81.51
2023-03-15T07:01:23.454Z,81.30
2023-03-15T07:02:23.539Z,81.47
2023-03-15T07:03:23.546Z,80.64
2023-03-15T07:04:23.567Z,80.71
2023-03-15T07:05:23.649Z,80.33
2023-03-15T07:06:23.627Z,80.60
2023-03-15T07:07:23.676Z,79.74
2023-03-15T07:08:23.674Z,79.67
2023-03-15T07:09:23.707Z,79.74
2023-03-15T07:10:23.748Z,78.81
2023-03-15T07:11:23.758Z,79.36
2023-03-15T07:12:23.773Z,79.88
2023-03-15T07:13:23.827Z,79.47
2023-03-15T07:14:23.880Z,79.39
2023-03-15T07:15:23.936Z,78.95
2023-03-15T07:16:24.006Z,79.05
2023-03-15T07:17:23.953Z,79.36
2023-03-15T07:18:24.012Z,79.36
2023-03-15T07:19:24.009Z,79.15
2023-03-15T07:20:24.058Z,76.35
2023-03-15T07:21:24.128Z,75.18
2023-03-15T07:22:24.175Z,73.02
2023-03-15T07:23:24.192Z,72.30
2023-03-15T07:24:24.221Z,71.61
2023-03-15T07:25:24.259Z,72.78
2023-03-15T07:26:24.273Z,73.50
2023-03-15T07:27:24.281Z,75.15
2023-03-15T07:28:24.304Z,75.77
2023-03-15T07:29:24.347Z,75.12
2023-03-15T07:30:24.378Z,75.32
2023-03-15T07:31:24.394Z,73.71
2023-03-15T07:32:24.561Z,72.99
2023-03-15T07:33:24.570Z,73.74
2023-03-15T07:34:24.518Z,74.71
2023-03-15T07:35:24.536Z,73.91
2023-03-15T07:36:24.567Z,74.46
2023-03-15T07:37:24.604Z,75.05
2023-03-15T07:38:24.628Z,74.95
2023-03-15T07:39:24.654Z,74.15
2023-03-15T07:40:24.713Z,75.29
2023-03-15T07:41:24.715Z,75.19
2023-03-15T07:42:24.734Z,74.67
2023-03-15T07:43:24.837Z,74.26
2023-03-15T07:44:24.874Z,72.54
2023-03-15T07:45:24.927Z,73.30
2023-03-15T07:46:24.971Z,71.30
2023-03-15T07:47:24.990Z,71.58
2023-03-15T07:48:25.024Z,72.85
2023-03-15T07:49:25.048Z,73.50
2023-03-15T07:50:25.075Z,72.74
2023-03-15T07:51:25.113Z,73.16
2023-03-15T07:52:25.133Z,71.82
2023-03-15T07:53:25.196Z,69.59
2023-03-15T07:54:26.220Z,68.87
2023-03-15T07:55:25.306Z,69.65
2023-03-15T07:56:25.323Z,71.55
2023-03-15T07:57:27.666Z,68.50
2023-03-15T07:58:25.385Z,66.69
2023-03-15T07:59:25.414Z,65.51
2023-03-15T08:00:25.476Z,62.42
2023-03-15T08:01:25.478Z,59.96
2023-03-15T08:02:25.586Z,60.63
2023-03-15T08:03:25.580Z,64.57
2023-03-15T08:04:25.592Z,63.56
2023-03-15T08:05:28.416Z,64.16
2023-03-15T08:06:25.638Z,66.20
2023-03-15T08:07:25.708Z,67.60
2023-03-15T08:08:25.704Z,69.76
2023-03-15T08:09:25.795Z,71.58
2023-03-15T08:10:25.810Z,73.47
2023-03-15T08:11:25.868Z,73.50
2023-03-15T08:12:25.934Z,72.50
2023-03-15T08:13:26.006Z,73.16
2023-03-15T08:14:26.039Z,73.36
2023-03-15T08:15:26.050Z,73.43
2023-03-15T08:16:26.127Z,72.95
2023-03-15T08:17:26.122Z,73.16
2023-03-15T08:18:26.150Z,73.26
2023-03-15T08:19:26.130Z,73.26
2023-03-15T08:20:27.697Z,73.16
2023-03-15T08:21:26.137Z,72.78
2023-03-15T08:22:26.149Z,71.34
2023-03-15T08:23:26.242Z,66.97
2023-03-15T08:24:26.248Z,63.72
2023-03-15T08:25:26.248Z,64.91
2023-03-15T08:26:26.237Z,65.31
2023-03-15T08:27:26.248Z,67.95
2023-03-15T08:28:26.276Z,66.03
2023-03-15T08:29:26.335Z,67.74
2023-03-15T08:30:26.368Z,68.25
2023-03-15T08:31:26.412Z,68.84
2023-03-15T08:32:26.407Z,67.78
2023-03-15T08:33:26.460Z,68.19
2023-03-15T08:34:26.511Z,67.98
2023-03-15T08:35:26.554Z,68.94
2023-03-15T08:36:26.591Z,68.59
2023-03-15T08:37:26.552Z,70.51
2023-03-15T08:38:26.594Z,70.72
2023-03-15T08:39:26.641Z,70.17
2023-03-15T08:40:26.805Z,70.41
2023-03-15T08:41:26.700Z,70.68
2023-03-15T08:42:26.692Z,70.17
2023-03-15T08:43:26.756Z,70.07
2023-03-15T08:44:26.783Z,70.96
2023-03-15T08:45:26.793Z,71.71
2023-03-15T08:46:26.880Z,72.13
2023-03-15T08:47:26.861Z,72.64
2023-03-15T08:48:26.900Z,72.40
2023-03-15T08:49:26.953Z,69.94
2023-03-15T08:50:27.057Z,66.61
2023-03-15T08:51:26.964Z,66.93
2023-03-15T08:52:26.969Z,68.32
2023-03-15T08:53:27.025Z,68.32
2023-03-15T08:54:27.039Z,68.84
2023-03-15T08:55:27.032Z,68.87
2023-03-15T08:56:27.091Z,69.31
2023-03-15T08:57:27.107Z,71.13
2023-03-15T08:58:27.170Z,70.66
2023-03-15T08:59:32.146Z,67.03
2023-03-15T09:00:27.255Z,67.63
2023-03-15T09:01:27.260Z,69.21
2023-03-15T09:02:27.336Z,69.31
2023-03-15T09:03:27.304Z,70.20
2023-03-15T09:04:27.364Z,70.79
2023-03-15T09:05:27.317Z,69.31
2023-03-15T09:06:27.334Z,67.36
2023-03-15T09:07:27.383Z,64.37
2023-03-15T09:08:27.432Z,62.10
2023-03-15T09:09:27.512Z,59.12
2023-03-15T09:10:27.531Z,61.67
2023-03-15T09:11:27.618Z,63.27
2023-03-15T09:12:27.581Z,65.66
2023-03-15T09:13:27.591Z,62.43
2023-03-15T09:14:27.678Z,60.77
2023-03-15T09:15:27.656Z,55.15
2023-03-15T09:16:27.672Z,54.18
2023-03-15T09:17:27.687Z,53.55
2023-03-15T09:18:27.745Z,57.38
2023-03-15T09:19:31.075Z,58.66
2023-03-15T09:20:27.816Z,61.92
2023-03-15T09:21:28.128Z,61.36
2023-03-15T09:22:39.068Z,63.27
2023-03-15T09:23:28.013Z,64.29
2023-03-15T09:24:27.949Z,64.19
2023-03-15T09:25:27.942Z,64.22
2023-03-15T09:26:27.971Z,63.12
2023-03-15T09:27:28.072Z,64.75
2023-03-15T09:28:28.104Z,59.32
2023-03-15T09:29:28.878Z,57.70
2023-03-15T09:30:28.227Z,54.92
2023-03-15T09:31:29.894Z,55.69
2023-03-15T09:32:28.358Z,55.84
2023-03-15T09:33:28.374Z,55.99
2023-03-15T09:34:33.325Z,54.51
2023-03-15T09:35:28.349Z,55.49
2023-03-15T09:36:28.356Z,55.58
2023-03-15T09:37:28.371Z,58.84
2023-03-15T09:38:28.387Z,61.00
2023-03-15T09:39:28.450Z,62.78
2023-03-15T09:40:28.443Z,63.74
2023-03-15T09:41:28.493Z,63.53
2023-03-15T09:42:28.543Z,63.56
2023-03-15T09:43:28.790Z,63.82
2023-03-15T09:44:28.542Z,60.42
2023-03-15T09:45:28.612Z,60.21
2023-03-15T09:46:28.762Z,60.92
2023-03-15T09:47:28.673Z,62.83
2023-03-15T09:48:28.717Z,63.50
2023-03-15T09:49:28.754Z,63.09
2023-03-15T09:50:28.766Z,63.32
2023-03-15T09:51:28.777Z,63.79
2023-03-15T09:52:28.802Z,63.87
2023-03-15T09:53:28.837Z,62.80
2023-03-15T09:54:28.909Z,58.97
2023-03-15T09:55:28.970Z,56.43
2023-03-15T09:56:29.020Z,54.25
2023-03-15T09:57:29.034Z,55.82
2023-03-15T09:58:29.033Z,56.63
2023-03-15T09:59:29.057Z,54.18
2023-03-15T10:00:29.052Z,54.64
2023-03-15T10:01:29.198Z,53.01
2023-03-15T10:02:29.135Z,53.67
2023-03-15T10:03:29.188Z,51.26
2023-03-15T10:04:29.158Z,51.99
2023-03-15T10:05:29.224Z,53.75
2023-03-15T10:06:29.242Z,53.42
2023-03-15T10:07:29.302Z,55.41
2023-03-15T10:08:29.302Z,56.53
2023-03-15T10:09:29.292Z,56.20
2023-03-15T10:10:29.383Z,54.74
2023-03-15T10:11:29.434Z,54.36
2023-03-15T10:12:29.415Z,57.46
2023-03-15T10:13:29.414Z,57.20
2023-03-15T10:14:29.394Z,58.05
2023-03-15T10:15:29.404Z,57.56
2023-03-15T10:16:29.427Z,56.10
2023-03-15T10:17:29.452Z,55.92
2023-03-15T10:18:29.486Z,56.87
2023-03-15T10:19:29.560Z,58.84
2023-03-15T10:20:29.557Z,57.53
2023-03-15T10:21:29.607Z,54.03
2023-03-15T10:22:29.668Z,53.03
2023-03-15T10:23:29.738Z,53.52
2023-03-15T10:24:29.767Z,55.58
2023-03-15T10:25:29.839Z,55.33
2023-03-15T10:26:29.874Z,53.03
2023-03-15T10:27:29.941Z,52.39
2023-03-15T10:28:31.278Z,54.36
2023-03-15T10:29:29.925Z,51.51
2023-03-15T10:30:29.992Z,53.90
2023-03-15T10:31:41.283Z,54.77
2023-03-15T10:32:30.111Z,58.10
2023-03-15T10:33:30.130Z,57.03
2023-03-15T10:34:30.170Z,57.36
2023-03-15T10:35:30.171Z,57.87
2023-03-15T10:36:30.292Z,59.13
2023-03-15T10:37:30.279Z,57.18
2023-03-15T10:38:30.336Z,56.38
2023-03-15T10:39:30.368Z,57.00
2023-03-15T10:40:30.343Z,55.33
2023-03-15T10:41:30.404Z,53.92
2023-03-15T10:42:30.384Z,52.34
2023-03-15T10:43:30.434Z,52.80
2023-03-15T10:44:30.479Z,51.78
2023-03-15T10:45:30.500Z,51.55
2023-03-15T10:46:30.537Z,52.47
2023-03-15T10:47:30.556Z,50.68
2023-03-15T10:48:30.578Z,51.96
2023-03-15T10:49:30.611Z,52.80
2023-03-15T10:50:30.628Z,52.50
2023-03-15T10:51:30.622Z,51.40
2023-03-15T10:52:30.670Z,52.90
2023-03-15T10:53:30.730Z,54.21
2023-03-15T10:54:30.773Z,55.33
2023-03-15T10:55:30.777Z,52.77
2023-03-15T10:56:30.861Z,51.98
2023-03-15T10:57:30.908Z,53.56
2023-03-15T10:58:30.928Z,51.54
2023-03-15T10:59:30.981Z,53.13
2023-03-15T11:00:31.041Z,51.86
2023-03-15T11:01:31.170Z,52.59
2023-03-15T11:02:31.168Z,54.51
2023-03-15T11:03:31.244Z,52.34
2023-03-15T11:04:33.113Z,51.91
2023-03-15T11:05:31.244Z,48.17
2023-03-15T11:06:31.298Z,49.63
2023-03-15T11:07:31.296Z,48.19
2023-03-15T11:08:31.361Z,50.04
2023-03-15T11:09:31.373Z,49.89
2023-03-15T11:10:31.448Z,50.04
2023-03-15T11:11:31.469Z,50.02
2023-03-15T11:12:31.495Z,48.55
2023-03-15T11:13:31.572Z,48.67
2023-03-15T11:14:31.579Z,46.57
2023-03-15T11:15:31.629Z,45.98
2023-03-15T11:16:31.709Z,47.03
2023-03-15T11:17:31.742Z,49.19
2023-03-15T11:18:31.791Z,49.81
2023-03-15T11:19:31.799Z,47.45
2023-03-15T11:20:31.803Z,45.97
2023-03-15T11:21:31.792Z,48.65
2023-03-15T11:22:31.865Z,50.06
2023-03-15T11:23:31.861Z,48.36
2023-03-15T11:24:31.961Z,49.18
2023-03-15T11:25:31.952Z,48.83
2023-03-15T11:26:33.156Z,46.72
2023-03-15T11:27:32.031Z,46.19
2023-03-15T11:28:32.070Z,45.61
2023-03-15T11:29:32.114Z,48.05
2023-03-15T11:30:32.146Z,47.00
2023-03-15T11:31:32.141Z,47.48
2023-03-15T11:32:32.197Z,47.48
2023-03-15T11:33:32.226Z,47.76
2023-03-15T11:34:32.242Z,48.33
2023-03-15T11:35:32.296Z,47.94
2023-03-15T11:36:32.279Z,49.22
2023-03-15T11:37:32.258Z,49.66
2023-03-15T11:38:32.261Z,48.92
2023-03-15T11:39:32.320Z,47.56
2023-03-15T11:40:32.360Z,48.25
2023-03-15T11:41:32.370Z,47.64
2023-03-15T11:42:32.346Z,48.68
2023-03-15T11:43:32.344Z,49.58
2023-03-15T11:44:32.363Z,49.55
2023-03-15T11:45:32.409Z,48.64
2023-03-15T11:46:32.406Z,46.80
2023-03-15T11:47:32.444Z,49.25
2023-03-15T11:48:32.486Z,47.80
2023-03-15T11:49:32.489Z,48.31
2023-03-15T11:50:32.519Z,46.63
2023-03-15T11:51:32.507Z,46.90
2023-03-15T11:52:32.576Z,47.01
2023-03-15T11:53:32.607Z,48.05
2023-03-15T11:54:32.699Z,46.66
2023-03-15T11:55:32.750Z,46.57
2023-03-15T11:56:32.777Z,48.56
2023-03-15T11:57:32.844Z,45.15
2023-03-15T11:58:32.858Z,45.23
2023-03-15T11:59:33.053Z,44.55
2023-03-15T12:00:32.981Z,45.35
2023-03-15T12:01:32.981Z,44.59
2023-03-15T12:02:33.077Z,44.64
2023-03-15T12:03:33.072Z,45.93
2023-03-15T12:04:33.094Z,46.52
2023-03-15T12:05:33.152Z,47.09
2023-03-15T12:06:33.160Z,46.21
2023-03-15T12:07:33.194Z,47.13
2023-03-15T12:08:33.191Z,47.59
2023-03-15T12:09:33.267Z,49.51
2023-03-15T12:10:33.291Z,49.69
2023-03-15T12:11:33.326Z,49.09
2023-03-15T12:12:33.354Z,46.47
2023-03-15T12:13:33.440Z,47.29
2023-03-15T12:14:33.492Z,45.12
2023-03-15T12:15:33.594Z,47.19
2023-03-15T12:16:33.558Z,48.52
2023-03-15T12:17:34.709Z,48.19
2023-03-15T12:18:33.561Z,47.71
2023-03-15T12:19:33.542Z,47.50
2023-03-15T12:20:33.592Z,47.01
2023-03-15T12:21:33.672Z,47.01
2023-03-15T12:22:33.882Z,45.51
2023-03-15T12:23:33.744Z,44.32
2023-03-15T12:24:33.746Z,45.47
2023-03-15T12:25:37.285Z,46.44
2023-03-15T12:26:33.830Z,44.04
2023-03-15T12:27:33.827Z,43.82
2023-03-15T12:28:33.884Z,44.16
2023-03-15T12:29:33.869Z,42.51
2023-03-15T12:30:34.027Z,43.26
2023-03-15T12:31:33.979Z,44.06
2023-03-15T12:32:34.040Z,41.61
2023-03-15T12:33:34.086Z,43.08
2023-03-15T12:34:34.066Z,43.12
2023-03-15T12:35:34.202Z,40.76
2023-03-15T12:36:34.110Z,40.76
2023-03-15T12:37:34.117Z,42.21
2023-03-15T12:38:34.196Z,41.27
2023-03-15T12:39:34.318Z,40.96
2023-03-15T12:40:34.305Z,39.89
2023-03-15T12:41:34.336Z,38.65
2023-03-15T12:42:34.336Z,39.48
2023-03-15T12:43:34.398Z,39.78
2023-03-15T12:44:34.427Z,40.67
2023-03-15T12:45:36.343Z,40.49
2023-03-15T12:46:34.485Z,39.97
2023-03-15T12:47:34.589Z,41.05
2023-03-15T12:48:34.520Z,43.49
2023-03-15T12:49:34.597Z,42.69
2023-03-15T12:50:34.562Z,43.20
2023-03-15T12:51:34.601Z,42.38
2023-03-15T12:52:34.576Z,42.16
2023-03-15T12:53:34.636Z,44.04
2023-03-15T12:54:34.618Z,45.18
2023-03-15T12:55:34.670Z,46.05
2023-03-15T12:56:34.700Z,47.22
2023-03-15T12:57:34.736Z,47.26
2023-03-15T12:58:34.705Z,46.66
2023-03-15T12:59:34.716Z,46.11